Mineral Point, WI

15:55 CDT le 29 août 2015 (GMT -0500)
KWIMINER1 | | Change Station
CLOSE
Current Station
Stations météorologiques personnelles
Location: Mineral Point, WI
Altitude: 1066 ft
Stations météo à proximité

Alt. 1066 ft 42.85 °N, 90.18 °W | Updated 9 minutes ago

Couvert
Couvert
69.5 ° F
Paraît 69.5 ° F
N
0.0
Vent Variable Vent de NNE
Gusts 0.0 mph

Aujourd'hui
Haut(e) -- | Bas -- ° F
--% Risque de précip.
Hier
Haut(e) -- | Bas -- ° F
Precip. -- pouce
6:21 AM 7:40 PM
Pleine lune, 100% visible
Pression 30.04 pouce
Visibilité 10.0 Miles terrestres
Nuages Couvert 2000 ft
Point de rosée 66 ° F
Humidité 87%
Précipitations 0.99 pouce
Profondeur de la couche neigeuse Non disponible.
UV 2 sur 12
Pollen .90 sur 12
Qualité de l'air Non disponible.
Flu Activity Non disponible.
METAR KMRJ 292035Z AUTO 01007KT 10SM OVC020 22/17 A3004 RMK AO2
Pression 30.04 pouce
Visibilité 10.0 Miles terrestres
Nuages Couvert 2000 ft
Point de rosée 66 ° F
Humidité 87%
Précipitations 0.99 pouce
Profondeur de la couche neigeuse Non disponible.
UV 2 sur 12
Pollen .90 sur 12
Qualité de l'air Non disponible.
Flu Activity Non disponible.
METAR KMRJ 292035Z AUTO 01007KT 10SM OVC020 22/17 A3004 RMK AO2

10-Day Weather Forecast

×

Almanac

Astronomie

Aug. 29, 2015 Lever Coucher
Temps réel
Crépuscule civil
Crépuscule nautique
Crépuscule astronomique
Lune
Durée de lumière visible
Longueur du jour
Tomorrow will be .
, % of the Moon is Illuminated

Extrêmes aujourd'hui

State Highs State Lows

Community

WunderPhotos

Upload Photos

1,850,793 Photos téléchargées !

WunderBlogs® & News

Nearby

Qualité de l'air

  Qualité de l'air Indice de la qualité de l'air Polluant
Not available.

Épaisseur de neige

Station Depth Altitude

Activité sismique

Ville Distance Mag. Time & Date
Minimum magnitude displayed is 2.5.

Températures des eaux côtières

Lieu Température

Stations

Stations météo à proximité

Emplacement de la station Température Refroidissement éolien Point de rosée Humidité Vent Precip. Alt. Mise à jour Type